sensor_id;sensor_type;location;lat;lon;timestamp;pressure;altitude;pressure_sealevel;temperature;humidity
76201;BME280;64981;52.930;9.266;2024-02-26T00:00:29;100075.13;;;2.66;80.72
76201;BME280;64981;52.930;9.266;2024-02-26T00:02:55;100073.63;;;2.73;80.39
76201;BME280;64981;52.930;9.266;2024-02-26T00:05:21;100064.28;;;2.71;80.20
76201;BME280;64981;52.930;9.266;2024-02-26T00:07:47;100068.69;;;2.70;80.28
76201;BME280;64981;52.930;9.266;2024-02-26T00:10:13;100058.06;;;2.62;80.40
76201;BME280;64981;52.930;9.266;2024-02-26T00:12:39;100072.00;;;2.72;80.05
76201;BME280;64981;52.930;9.266;2024-02-26T00:15:07;100078.28;;;2.70;79.68
76201;BME280;64981;52.930;9.266;2024-02-26T00:17:33;100070.66;;;2.57;79.96
76201;BME280;64981;52.930;9.266;2024-02-26T00:19:59;100059.09;;;2.50;80.26
76201;BME280;64981;52.930;9.266;2024-02-26T00:22:26;100062.34;;;2.43;80.63
76201;BME280;64981;52.930;9.266;2024-02-26T00:24:52;100066.34;;;2.47;80.85
76201;BME280;64981;52.930;9.266;2024-02-26T00:27:17;100056.53;;;2.39;80.81
76201;BME280;64981;52.930;9.266;2024-02-26T00:29:43;100059.78;;;2.52;80.33
76201;BME280;64981;52.930;9.266;2024-02-26T00:32:09;100057.06;;;2.54;80.20
76201;BME280;64981;52.930;9.266;2024-02-26T00:34:34;100048.63;;;2.41;80.43
76201;BME280;64981;52.930;9.266;2024-02-26T00:37:00;100055.44;;;2.42;80.68
76201;BME280;64981;52.930;9.266;2024-02-26T00:39:25;100045.03;;;2.21;82.08
76201;BME280;64981;52.930;9.266;2024-02-26T00:41:51;100043.94;;;2.23;81.99
76201;BME280;64981;52.930;9.266;2024-02-26T00:44:17;100042.44;;;2.21;81.82
76201;BME280;64981;52.930;9.266;2024-02-26T00:46:42;100034.69;;;2.10;81.49
76201;BME280;64981;52.930;9.266;2024-02-26T00:49:08;100043.44;;;2.29;81.14
76201;BME280;64981;52.930;9.266;2024-02-26T00:51:34;100032.84;;;2.42;80.24
76201;BME280;64981;52.930;9.266;2024-02-26T00:53:59;100034.84;;;2.39;80.56
76201;BME280;64981;52.930;9.266;2024-02-26T00:56:25;100034.94;;;2.48;79.89
76201;BME280;64981;52.930;9.266;2024-02-26T00:58:50;100033.56;;;2.44;80.01
76201;BME280;64981;52.930;9.266;2024-02-26T01:01:17;100026.28;;;2.27;80.00
76201;BME280;64981;52.930;9.266;2024-02-26T01:03:42;100021.97;;;2.16;81.15
76201;BME280;64981;52.930;9.266;2024-02-26T01:06:08;100035.44;;;2.21;80.45
76201;BME280;64981;52.930;9.266;2024-02-26T01:08:33;100038.22;;;2.29;80.04
76201;BME280;64981;52.930;9.266;2024-02-26T01:11:01;100041.81;;;2.28;80.07
76201;BME280;64981;52.930;9.266;2024-02-26T01:13:26;100047.63;;;2.21;80.32
76201;BME280;64981;52.930;9.266;2024-02-26T01:15:52;100044.16;;;2.32;79.68
76201;BME280;64981;52.930;9.266;2024-02-26T01:18:18;100040.22;;;2.37;78.95
76201;BME280;64981;52.930;9.266;2024-02-26T01:20:43;100041.00;;;2.17;79.82
76201;BME280;64981;52.930;9.266;2024-02-26T01:23:09;100044.53;;;2.27;78.82
76201;BME280;64981;52.930;9.266;2024-02-26T01:25:34;100043.00;;;2.24;78.84
76201;BME280;64981;52.930;9.266;2024-02-26T01:28:00;100037.78;;;2.04;80.11
76201;BME280;64981;52.930;9.266;2024-02-26T01:30:25;100043.00;;;2.04;80.14
76201;BME280;64981;52.930;9.266;2024-02-26T01:32:51;100038.06;;;1.90;80.63
76201;BME280;64981;52.930;9.266;2024-02-26T01:35:17;100046.31;;;1.95;80.28
76201;BME280;64981;52.930;9.266;2024-02-26T01:37:42;100050.66;;;2.05;80.10
76201;BME280;64981;52.930;9.266;2024-02-26T01:40:08;100052.06;;;2.09;79.56
76201;BME280;64981;52.930;9.266;2024-02-26T01:42:35;100055.44;;;2.21;78.42
76201;BME280;64981;52.930;9.266;2024-02-26T01:45:01;100055.13;;;2.14;78.32
76201;BME280;64981;52.930;9.266;2024-02-26T01:47:27;100049.59;;;2.08;78.42
76201;BME280;64981;52.930;9.266;2024-02-26T01:49:53;100053.97;;;2.07;78.64
76201;BME280;64981;52.930;9.266;2024-02-26T01:52:20;100053.78;;;1.99;79.18
76201;BME280;64981;52.930;9.266;2024-02-26T01:54:47;100054.88;;;1.86;80.05
76201;BME280;64981;52.930;9.266;2024-02-26T01:57:14;100057.22;;;1.89;80.11
76201;BME280;64981;52.930;9.266;2024-02-26T01:59:40;100042.31;;;1.91;79.77
76201;BME280;64981;52.930;9.266;2024-02-26T02:02:08;100047.88;;;1.86;79.46
76201;BME280;64981;52.930;9.266;2024-02-26T02:04:36;100061.41;;;2.12;78.31
76201;BME280;64981;52.930;9.266;2024-02-26T02:07:03;100068.53;;;2.10;78.45
76201;BME280;64981;52.930;9.266;2024-02-26T02:09:30;100063.84;;;2.04;78.87
76201;BME280;64981;52.930;9.266;2024-02-26T02:11:55;100071.31;;;1.97;79.09
76201;BME280;64981;52.930;9.266;2024-02-26T02:14:21;100075.59;;;1.87;79.52
76201;BME280;64981;52.930;9.266;2024-02-26T02:16:48;100062.41;;;2.00;78.12
76201;BME280;64981;52.930;9.266;2024-02-26T02:19:13;100066.00;;;1.88;78.94
76201;BME280;64981;52.930;9.266;2024-02-26T02:21:39;100062.75;;;1.63;80.01
76201;BME280;64981;52.930;9.266;2024-02-26T02:24:05;100076.34;;;1.67;79.72
76201;BME280;64981;52.930;9.266;2024-02-26T02:26:30;100076.69;;;1.73;80.04
76201;BME280;64981;52.930;9.266;2024-02-26T02:28:57;100072.16;;;1.87;79.57
76201;BME280;64981;52.930;9.266;2024-02-26T02:31:23;100073.72;;;1.78;80.00
76201;BME280;64981;52.930;9.266;2024-02-26T02:33:49;100071.97;;;1.79;79.85
76201;BME280;64981;52.930;9.266;2024-02-26T02:36:15;100076.19;;;1.91;79.57
76201;BME280;64981;52.930;9.266;2024-02-26T02:38:50;100073.59;;;1.80;80.40
76201;BME280;64981;52.930;9.266;2024-02-26T02:41:16;100070.88;;;1.81;80.46
76201;BME280;64981;52.930;9.266;2024-02-26T02:43:42;100073.00;;;1.87;80.35
76201;BME280;64981;52.930;9.266;2024-02-26T02:46:08;100073.31;;;1.94;79.75
76201;BME280;64981;52.930;9.266;2024-02-26T02:48:33;100066.16;;;1.75;80.96
76201;BME280;64981;52.930;9.266;2024-02-26T02:50:59;100061.06;;;1.73;80.86
76201;BME280;64981;52.930;9.266;2024-02-26T02:53:24;100068.97;;;1.83;81.04
76201;BME280;64981;52.930;9.266;2024-02-26T02:55:50;100074.31;;;1.82;80.95
76201;BME280;64981;52.930;9.266;2024-02-26T02:58:16;100066.94;;;1.87;80.89
76201;BME280;64981;52.930;9.266;2024-02-26T03:00:41;100065.75;;;1.91;81.16
76201;BME280;64981;52.930;9.266;2024-02-26T03:03:07;100067.00;;;1.76;81.83
76201;BME280;64981;52.930;9.266;2024-02-26T03:05:32;100069.19;;;1.91;81.00
76201;BME280;64981;52.930;9.266;2024-02-26T03:07:58;100072.00;;;1.99;80.13
76201;BME280;64981;52.930;9.266;2024-02-26T03:10:23;100079.47;;;1.93;80.66
76201;BME280;64981;52.930;9.266;2024-02-26T03:12:50;100087.34;;;1.82;81.43
76201;BME280;64981;52.930;9.266;2024-02-26T03:15:15;100089.16;;;2.02;80.50
76201;BME280;64981;52.930;9.266;2024-02-26T03:17:41;100071.66;;;2.04;80.10
76201;BME280;64981;52.930;9.266;2024-02-26T03:20:08;100092.25;;;1.96;80.81
76201;BME280;64981;52.930;9.266;2024-02-26T03:22:35;100092.63;;;1.91;81.25
76201;BME280;64981;52.930;9.266;2024-02-26T03:25:00;100097.44;;;2.07;80.43
76201;BME280;64981;52.930;9.266;2024-02-26T03:27:26;100092.25;;;1.96;80.46
76201;BME280;64981;52.930;9.266;2024-02-26T03:29:52;100092.09;;;2.08;79.96
76201;BME280;64981;52.930;9.266;2024-02-26T03:32:18;100102.50;;;2.08;80.07
76201;BME280;64981;52.930;9.266;2024-02-26T03:34:43;100106.44;;;2.03;79.87
76201;BME280;64981;52.930;9.266;2024-02-26T03:37:09;100097.19;;;2.10;79.30
76201;BME280;64981;52.930;9.266;2024-02-26T03:39:36;100113.25;;;2.15;79.39
76201;BME280;64981;52.930;9.266;2024-02-26T03:42:02;100119.25;;;2.26;78.92
76201;BME280;64981;52.930;9.266;2024-02-26T03:44:28;100114.44;;;2.22;79.70
76201;BME280;64981;52.930;9.266;2024-02-26T03:46:53;100125.94;;;2.19;79.61
76201;BME280;64981;52.930;9.266;2024-02-26T03:49:19;100128.16;;;2.24;79.35
76201;BME280;64981;52.930;9.266;2024-02-26T03:51:44;100112.25;;;1.95;80.18
76201;BME280;64981;52.930;9.266;2024-02-26T03:54:10;100122.03;;;2.14;79.55
76201;BME280;64981;52.930;9.266;2024-02-26T03:56:36;100124.19;;;2.09;79.93
76201;BME280;64981;52.930;9.266;2024-02-26T03:59:01;100123.16;;;2.00;80.36
76201;BME280;64981;52.930;9.266;2024-02-26T04:01:28;100119.91;;;2.08;79.96
76201;BME280;64981;52.930;9.266;2024-02-26T04:03:54;100115.00;;;1.94;80.47
76201;BME280;64981;52.930;9.266;2024-02-26T04:06:20;100125.66;;;1.91;81.09
76201;BME280;64981;52.930;9.266;2024-02-26T04:08:47;100121.19;;;1.82;81.63
76201;BME280;64981;52.930;9.266;2024-02-26T04:11:13;100140.31;;;1.92;81.55
76201;BME280;64981;52.930;9.266;2024-02-26T04:13:38;100140.56;;;1.89;81.88
76201;BME280;64981;52.930;9.266;2024-02-26T04:16:05;100139.13;;;1.96;81.72
76201;BME280;64981;52.930;9.266;2024-02-26T04:18:31;100124.69;;;1.92;81.80
76201;BME280;64981;52.930;9.266;2024-02-26T04:20:57;100135.09;;;2.03;81.15
76201;BME280;64981;52.930;9.266;2024-02-26T04:23:23;100144.69;;;2.02;81.11
76201;BME280;64981;52.930;9.266;2024-02-26T04:25:49;100137.22;;;2.09;81.19
76201;BME280;64981;52.930;9.266;2024-02-26T04:28:15;100143.75;;;2.03;81.67
76201;BME280;64981;52.930;9.266;2024-02-26T04:30:41;100134.91;;;1.84;82.88
76201;BME280;64981;52.930;9.266;2024-02-26T04:33:06;100141.38;;;2.00;82.66
76201;BME280;64981;52.930;9.266;2024-02-26T04:35:32;100148.66;;;2.17;82.07
76201;BME280;64981;52.930;9.266;2024-02-26T04:37:58;100146.78;;;2.19;81.98
76201;BME280;64981;52.930;9.266;2024-02-26T04:40:23;100149.91;;;2.34;81.18
76201;BME280;64981;52.930;9.266;2024-02-26T04:42:49;100157.84;;;2.33;81.14
76201;BME280;64981;52.930;9.266;2024-02-26T04:45:15;100148.50;;;2.30;81.33
76201;BME280;64981;52.930;9.266;2024-02-26T04:47:40;100155.47;;;2.41;80.64
76201;BME280;64981;52.930;9.266;2024-02-26T04:50:06;100155.72;;;2.26;81.06
76201;BME280;64981;52.930;9.266;2024-02-26T04:52:32;100158.56;;;2.35;81.02
76201;BME280;64981;52.930;9.266;2024-02-26T04:54:57;100156.78;;;2.35;80.68
76201;BME280;64981;52.930;9.266;2024-02-26T04:57:26;100168.56;;;2.50;79.79
76201;BME280;64981;52.930;9.266;2024-02-26T04:59:51;100161.41;;;2.32;80.42
76201;BME280;64981;52.930;9.266;2024-02-26T05:02:17;100173.56;;;2.42;80.37
76201;BME280;64981;52.930;9.266;2024-02-26T05:04:43;100174.41;;;2.43;80.47
76201;BME280;64981;52.930;9.266;2024-02-26T05:07:09;100181.38;;;2.42;80.53
76201;BME280;64981;52.930;9.266;2024-02-26T05:09:35;100169.00;;;2.35;80.70
76201;BME280;64981;52.930;9.266;2024-02-26T05:12:01;100180.88;;;2.48;80.75
76201;BME280;64981;52.930;9.266;2024-02-26T05:14:27;100178.66;;;2.44;80.67
76201;BME280;64981;52.930;9.266;2024-02-26T05:16:52;100182.91;;;2.13;81.46
76201;BME280;64981;52.930;9.266;2024-02-26T05:19:18;100178.69;;;2.33;80.67
76201;BME280;64981;52.930;9.266;2024-02-26T05:21:43;100173.13;;;2.37;80.57
76201;BME280;64981;52.930;9.266;2024-02-26T05:24:10;100165.16;;;2.39;80.18
76201;BME280;64981;52.930;9.266;2024-02-26T05:26:35;100169.69;;;2.37;80.30
76201;BME280;64981;52.930;9.266;2024-02-26T05:29:01;100169.34;;;2.30;80.71
76201;BME280;64981;52.930;9.266;2024-02-26T05:31:27;100178.91;;;2.41;80.86
76201;BME280;64981;52.930;9.266;2024-02-26T05:33:54;100179.94;;;2.49;80.41
76201;BME280;64981;52.930;9.266;2024-02-26T05:36:20;100192.19;;;2.69;79.25
76201;BME280;64981;52.930;9.266;2024-02-26T05:38:48;100185.06;;;2.51;80.23
76201;BME280;64981;52.930;9.266;2024-02-26T05:41:15;100187.44;;;2.43;80.25
76201;BME280;64981;52.930;9.266;2024-02-26T05:43:42;100192.47;;;2.55;79.94
76201;BME280;64981;52.930;9.266;2024-02-26T05:46:07;100185.31;;;2.68;79.38
76201;BME280;64981;52.930;9.266;2024-02-26T05:48:33;100193.00;;;2.70;78.97
76201;BME280;64981;52.930;9.266;2024-02-26T05:50:59;100184.25;;;2.71;78.71
76201;BME280;64981;52.930;9.266;2024-02-26T05:53:25;100194.81;;;2.69;78.42
76201;BME280;64981;52.930;9.266;2024-02-26T05:55:50;100188.84;;;2.78;78.27
76201;BME280;64981;52.930;9.266;2024-02-26T05:58:16;100196.41;;;2.81;78.02
76201;BME280;64981;52.930;9.266;2024-02-26T06:00:41;100197.75;;;2.76;78.33
76201;BME280;64981;52.930;9.266;2024-02-26T06:03:07;100192.81;;;2.82;78.01
76201;BME280;64981;52.930;9.266;2024-02-26T06:05:33;100193.38;;;2.97;77.65
76201;BME280;64981;52.930;9.266;2024-02-26T06:07:58;100212.91;;;3.03;77.50
76201;BME280;64981;52.930;9.266;2024-02-26T06:10:24;100203.59;;;2.89;77.38
76201;BME280;64981;52.930;9.266;2024-02-26T06:12:50;100209.63;;;2.90;77.41
76201;BME280;64981;52.930;9.266;2024-02-26T06:15:15;100218.41;;;2.89;77.96
76201;BME280;64981;52.930;9.266;2024-02-26T06:17:41;100223.94;;;2.74;78.77
76201;BME280;64981;52.930;9.266;2024-02-26T06:20:07;100225.00;;;2.72;78.87
76201;BME280;64981;52.930;9.266;2024-02-26T06:22:37;100233.31;;;2.98;77.70
76201;BME280;64981;52.930;9.266;2024-02-26T06:25:02;100223.25;;;2.72;78.77
76201;BME280;64981;52.930;9.266;2024-02-26T06:27:28;100228.53;;;2.82;78.58
76201;BME280;64981;52.930;9.266;2024-02-26T06:29:54;100240.81;;;2.91;78.17
76201;BME280;64981;52.930;9.266;2024-02-26T06:32:19;100239.06;;;2.92;78.13
76201;BME280;64981;52.930;9.266;2024-02-26T06:34:45;100239.94;;;3.02;77.88
76201;BME280;64981;52.930;9.266;2024-02-26T06:37:11;100249.94;;;3.17;77.17
76201;BME280;64981;52.930;9.266;2024-02-26T06:39:36;100239.59;;;2.95;77.93
76201;BME280;64981;52.930;9.266;2024-02-26T06:42:03;100260.69;;;3.03;78.02
76201;BME280;64981;52.930;9.266;2024-02-26T06:44:29;100236.13;;;3.06;77.57
76201;BME280;64981;52.930;9.266;2024-02-26T06:46:58;100249.84;;;3.08;77.88
76201;BME280;64981;52.930;9.266;2024-02-26T06:49:24;100260.25;;;3.19;77.49
76201;BME280;64981;52.930;9.266;2024-02-26T06:51:50;100265.22;;;3.22;77.68
76201;BME280;64981;52.930;9.266;2024-02-26T06:54:15;100259.94;;;3.33;76.81
76201;BME280;64981;52.930;9.266;2024-02-26T06:56:41;100270.53;;;3.20;77.59
76201;BME280;64981;52.930;9.266;2024-02-26T06:59:07;100274.94;;;3.20;78.11
76201;BME280;64981;52.930;9.266;2024-02-26T07:01:32;100279.22;;;3.21;78.03
76201;BME280;64981;52.930;9.266;2024-02-26T07:03:58;100284.13;;;3.35;77.48
76201;BME280;64981;52.930;9.266;2024-02-26T07:06:23;100290.72;;;3.18;78.72
76201;BME280;64981;52.930;9.266;2024-02-26T07:08:49;100285.38;;;3.20;77.89
76201;BME280;64981;52.930;9.266;2024-02-26T07:11:14;100296.78;;;3.40;77.54
76201;BME280;64981;52.930;9.266;2024-02-26T07:13:40;100292.72;;;3.26;78.13
76201;BME280;64981;52.930;9.266;2024-02-26T07:16:06;100302.53;;;3.33;78.00
76201;BME280;64981;52.930;9.266;2024-02-26T07:18:34;100296.09;;;3.58;76.69
76201;BME280;64981;52.930;9.266;2024-02-26T07:21:02;100295.75;;;3.52;77.00
76201;BME280;64981;52.930;9.266;2024-02-26T07:23:27;100292.78;;;3.56;77.47
76201;BME280;64981;52.930;9.266;2024-02-26T07:25:53;100311.09;;;3.86;76.18
76201;BME280;64981;52.930;9.266;2024-02-26T07:28:19;100312.84;;;4.07;75.14
76201;BME280;64981;52.930;9.266;2024-02-26T07:30:45;100314.94;;;3.82;75.97
76201;BME280;64981;52.930;9.266;2024-02-26T07:33:10;100301.22;;;3.90;75.26
76201;BME280;64981;52.930;9.266;2024-02-26T07:35:36;100308.06;;;3.81;75.52
76201;BME280;64981;52.930;9.266;2024-02-26T07:38:04;100311.09;;;3.86;75.65
76201;BME280;64981;52.930;9.266;2024-02-26T07:40:30;100309.31;;;3.87;75.82
76201;BME280;64981;52.930;9.266;2024-02-26T07:42:56;100312.28;;;4.03;75.35
76201;BME280;64981;52.930;9.266;2024-02-26T07:45:22;100313.66;;;3.98;75.78
76201;BME280;64981;52.930;9.266;2024-02-26T07:47:47;100314.75;;;4.05;75.34
76201;BME280;64981;52.930;9.266;2024-02-26T07:50:13;100303.03;;;3.99;75.61
76201;BME280;64981;52.930;9.266;2024-02-26T07:52:39;100315.91;;;4.12;75.26
76201;BME280;64981;52.930;9.266;2024-02-26T07:55:05;100308.72;;;4.04;75.62
76201;BME280;64981;52.930;9.266;2024-02-26T07:57:33;100310.34;;;4.05;75.79
76201;BME280;64981;52.930;9.266;2024-02-26T08:00:00;100309.97;;;4.10;75.84
76201;BME280;64981;52.930;9.266;2024-02-26T08:02:25;100318.09;;;4.37;74.99
76201;BME280;64981;52.930;9.266;2024-02-26T08:04:51;100310.94;;;4.39;74.79
76201;BME280;64981;52.930;9.266;2024-02-26T08:07:17;100321.88;;;4.33;75.57
76201;BME280;64981;52.930;9.266;2024-02-26T08:09:42;100321.06;;;4.63;74.18
76201;BME280;64981;52.930;9.266;2024-02-26T08:12:08;100324.06;;;4.58;74.49
76201;BME280;64981;52.930;9.266;2024-02-26T08:14:34;100320.81;;;4.75;73.94
76201;BME280;64981;52.930;9.266;2024-02-26T08:16:59;100321.66;;;4.85;73.99
76201;BME280;64981;52.930;9.266;2024-02-26T08:19:26;100338.44;;;4.92;73.72
76201;BME280;64981;52.930;9.266;2024-02-26T08:21:52;100324.03;;;4.98;73.22
76201;BME280;64981;52.930;9.266;2024-02-26T08:24:18;100325.94;;;5.15;72.96
76201;BME280;64981;52.930;9.266;2024-02-26T08:26:43;100322.38;;;5.16;73.07
76201;BME280;64981;52.930;9.266;2024-02-26T08:29:09;100321.94;;;5.30;72.42
76201;BME280;64981;52.930;9.266;2024-02-26T08:31:34;100333.53;;;5.37;72.56
76201;BME280;64981;52.930;9.266;2024-02-26T08:34:03;100328.00;;;5.60;71.55
76201;BME280;64981;52.930;9.266;2024-02-26T08:36:30;100322.31;;;5.64;71.10
76201;BME280;64981;52.930;9.266;2024-02-26T08:38:56;100327.97;;;5.69;71.31
76201;BME280;64981;52.930;9.266;2024-02-26T08:41:22;100332.78;;;5.74;71.18
76201;BME280;64981;52.930;9.266;2024-02-26T08:43:48;100341.31;;;5.85;71.20
76201;BME280;64981;52.930;9.266;2024-02-26T08:46:13;100337.94;;;6.02;70.03
76201;BME280;64981;52.930;9.266;2024-02-26T08:48:39;100326.22;;;6.07;69.32
76201;BME280;64981;52.930;9.266;2024-02-26T08:51:06;100339.69;;;6.21;69.06
76201;BME280;64981;52.930;9.266;2024-02-26T08:53:32;100330.75;;;6.14;69.32
76201;BME280;64981;52.930;9.266;2024-02-26T08:55:58;100335.81;;;6.25;68.63
76201;BME280;64981;52.930;9.266;2024-02-26T08:58:23;100337.59;;;6.25;69.01
76201;BME280;64981;52.930;9.266;2024-02-26T09:00:49;100333.16;;;6.35;68.69
76201;BME280;64981;52.930;9.266;2024-02-26T09:03:14;100338.38;;;6.62;67.96
76201;BME280;64981;52.930;9.266;2024-02-26T09:05:40;100327.34;;;6.58;68.17
76201;BME280;64981;52.930;9.266;2024-02-26T09:08:06;100330.88;;;6.49;68.44
76201;BME280;64981;52.930;9.266;2024-02-26T09:10:31;100346.97;;;6.64;68.50
76201;BME280;64981;52.930;9.266;2024-02-26T09:12:59;100345.38;;;6.71;68.28
76201;BME280;64981;52.930;9.266;2024-02-26T09:15:24;100349.09;;;6.51;68.89
76201;BME280;64981;52.930;9.266;2024-02-26T09:17:50;100354.84;;;6.91;66.92
76201;BME280;64981;52.930;9.266;2024-02-26T09:20:17;100357.91;;;6.87;67.02
76201;BME280;64981;52.930;9.266;2024-02-26T09:22:47;100357.84;;;6.69;68.99
76201;BME280;64981;52.930;9.266;2024-02-26T09:25:13;100365.66;;;7.06;66.80
76201;BME280;64981;52.930;9.266;2024-02-26T09:27:42;100371.00;;;7.14;66.84
76201;BME280;64981;52.930;9.266;2024-02-26T09:30:10;100366.16;;;6.92;67.53
76201;BME280;64981;52.930;9.266;2024-02-26T09:32:35;100382.63;;;7.29;66.48
76201;BME280;64981;52.930;9.266;2024-02-26T09:35:01;100366.19;;;7.27;66.74
76201;BME280;64981;52.930;9.266;2024-02-26T09:37:27;100377.69;;;7.44;65.81
76201;BME280;64981;52.930;9.266;2024-02-26T09:39:53;100376.69;;;7.62;65.18
76201;BME280;64981;52.930;9.266;2024-02-26T09:42:19;100378.59;;;7.96;64.28
76201;BME280;64981;52.930;9.266;2024-02-26T09:44:45;100379.09;;;7.74;64.68
76201;BME280;64981;52.930;9.266;2024-02-26T09:47:12;100385.75;;;7.68;64.98
76201;BME280;64981;52.930;9.266;2024-02-26T09:49:42;100377.97;;;8.02;63.81
76201;BME280;64981;52.930;9.266;2024-02-26T09:52:08;100378.63;;;7.78;64.84
76201;BME280;64981;52.930;9.266;2024-02-26T09:54:35;100388.31;;;7.78;65.13
76201;BME280;64981;52.930;9.266;2024-02-26T09:57:02;100384.13;;;8.10;63.75
76201;BME280;64981;52.930;9.266;2024-02-26T09:59:37;100398.59;;;7.71;64.27
76201;BME280;64981;52.930;9.266;2024-02-26T10:02:09;100395.50;;;7.93;64.23
76201;BME280;64981;52.930;9.266;2024-02-26T10:04:36;100392.75;;;8.21;63.63
76201;BME280;64981;52.930;9.266;2024-02-26T10:07:04;100401.16;;;8.24;63.47
76201;BME280;64981;52.930;9.266;2024-02-26T10:09:31;100408.22;;;8.24;63.25
76201;BME280;64981;52.930;9.266;2024-02-26T10:11:57;100398.88;;;8.63;61.84
76201;BME280;64981;52.930;9.266;2024-02-26T10:14:24;100411.50;;;8.77;61.43
76201;BME280;64981;52.930;9.266;2024-02-26T10:16:51;100408.53;;;8.80;61.10
76201;BME280;64981;52.930;9.266;2024-02-26T10:19:28;100421.78;;;9.12;60.01
76201;BME280;64981;52.930;9.266;2024-02-26T10:21:57;100414.34;;;9.00;60.83
76201;BME280;64981;52.930;9.266;2024-02-26T10:24:24;100412.31;;;9.36;59.38
76201;BME280;64981;52.930;9.266;2024-02-26T10:26:51;100413.97;;;9.37;58.69
76201;BME280;64981;52.930;9.266;2024-02-26T10:29:18;100420.88;;;9.38;58.72
76201;BME280;64981;52.930;9.266;2024-02-26T10:31:45;100422.38;;;8.90;60.09
76201;BME280;64981;52.930;9.266;2024-02-26T10:34:15;100414.63;;;9.31;58.83
76201;BME280;64981;52.930;9.266;2024-02-26T10:36:41;100408.19;;;9.41;59.10
76201;BME280;64981;52.930;9.266;2024-02-26T10:39:07;100412.59;;;9.24;58.22
76201;BME280;64981;52.930;9.266;2024-02-26T10:41:34;100419.25;;;9.37;59.00
76201;BME280;64981;52.930;9.266;2024-02-26T10:44:00;100413.75;;;9.22;58.38
76201;BME280;64981;52.930;9.266;2024-02-26T10:46:26;100421.06;;;9.60;57.46
76201;BME280;64981;52.930;9.266;2024-02-26T10:48:53;100424.16;;;9.23;58.73
76201;BME280;64981;52.930;9.266;2024-02-26T10:51:26;100430.94;;;9.42;58.64
76201;BME280;64981;52.930;9.266;2024-02-26T10:53:56;100432.59;;;9.51;57.93
76201;BME280;64981;52.930;9.266;2024-02-26T10:56:28;100435.56;;;9.48;58.29
76201;BME280;64981;52.930;9.266;2024-02-26T10:58:55;100438.94;;;9.08;58.98
76201;BME280;64981;52.930;9.266;2024-02-26T11:01:22;100437.84;;;9.27;58.61
76201;BME280;64981;52.930;9.266;2024-02-26T11:03:52;100447.38;;;9.28;59.06
76201;BME280;64981;52.930;9.266;2024-02-26T11:06:19;100456.97;;;9.53;58.10
76201;BME280;64981;52.930;9.266;2024-02-26T11:08:50;100440.91;;;8.73;59.89
76201;BME280;64981;52.930;9.266;2024-02-26T11:11:18;100453.13;;;8.82;60.40
76201;BME280;64981;52.930;9.266;2024-02-26T11:13:46;100442.81;;;8.96;60.47
76201;BME280;64981;52.930;9.266;2024-02-26T11:16:18;100444.66;;;8.96;60.45
76201;BME280;64981;52.930;9.266;2024-02-26T11:18:46;100443.25;;;9.25;59.79
76201;BME280;64981;52.930;9.266;2024-02-26T11:21:15;100450.69;;;9.30;59.89
76201;BME280;64981;52.930;9.266;2024-02-26T11:23:42;100439.91;;;9.07;60.52
76201;BME280;64981;52.930;9.266;2024-02-26T11:26:10;100434.69;;;9.23;59.76
76201;BME280;64981;52.930;9.266;2024-02-26T11:28:38;100444.59;;;9.30;60.16
76201;BME280;64981;52.930;9.266;2024-02-26T11:31:05;100445.47;;;9.46;59.43
76201;BME280;64981;52.930;9.266;2024-02-26T11:33:34;100430.25;;;9.40;59.40
76201;BME280;64981;52.930;9.266;2024-02-26T11:36:12;100437.91;;;9.67;59.35
76201;BME280;64981;52.930;9.266;2024-02-26T11:38:39;100437.56;;;9.70;58.82
76201;BME280;64981;52.930;9.266;2024-02-26T11:41:05;100441.00;;;9.63;59.12
76201;BME280;64981;52.930;9.266;2024-02-26T11:46:29;100428.16;;;9.84;59.04
76201;BME280;64981;52.930;9.266;2024-02-26T11:48:59;100429.00;;;9.93;58.52
76201;BME280;64981;52.930;9.266;2024-02-26T11:51:26;100436.75;;;10.10;58.25
76201;BME280;64981;52.930;9.266;2024-02-26T11:53:53;100435.28;;;10.24;58.45
76201;BME280;64981;52.930;9.266;2024-02-26T11:56:21;100430.63;;;10.34;56.87
76201;BME280;64981;52.930;9.266;2024-02-26T11:58:53;100443.34;;;10.22;57.25
76201;BME280;64981;52.930;9.266;2024-02-26T12:04:07;100438.81;;;10.63;56.75
76201;BME280;64981;52.930;9.266;2024-02-26T12:06:42;100439.63;;;10.64;56.53
76201;BME280;64981;52.930;9.266;2024-02-26T12:09:08;100435.16;;;10.72;56.43
76201;BME280;64981;52.930;9.266;2024-02-26T12:11:38;100439.34;;;10.51;57.18
76201;BME280;64981;52.930;9.266;2024-02-26T12:14:07;100446.53;;;10.73;57.25
76201;BME280;64981;52.930;9.266;2024-02-26T12:16:39;100443.13;;;10.56;56.72
76201;BME280;64981;52.930;9.266;2024-02-26T12:19:07;100431.13;;;10.46;56.63
76201;BME280;64981;52.930;9.266;2024-02-26T12:21:34;100443.22;;;10.79;56.39
76201;BME280;64981;52.930;9.266;2024-02-26T12:24:18;100442.03;;;10.90;55.63
76201;BME280;64981;52.930;9.266;2024-02-26T12:26:45;100456.06;;;10.90;55.78
76201;BME280;64981;52.930;9.266;2024-02-26T12:29:11;100454.03;;;11.00;55.78
76201;BME280;64981;52.930;9.266;2024-02-26T12:31:40;100448.00;;;10.75;56.32
76201;BME280;64981;52.930;9.266;2024-02-26T12:34:07;100460.63;;;11.12;55.68
76201;BME280;64981;52.930;9.266;2024-02-26T12:36:34;100452.28;;;11.23;55.40
76201;BME280;64981;52.930;9.266;2024-02-26T12:39:01;100452.84;;;11.42;55.26
76201;BME280;64981;52.930;9.266;2024-02-26T12:41:28;100451.31;;;11.47;54.41
76201;BME280;64981;52.930;9.266;2024-02-26T12:43:55;100466.81;;;11.27;54.07
76201;BME280;64981;52.930;9.266;2024-02-26T12:46:21;100464.53;;;11.47;54.08
76201;BME280;64981;52.930;9.266;2024-02-26T12:48:47;100469.38;;;11.44;54.67
76201;BME280;64981;52.930;9.266;2024-02-26T12:51:16;100484.16;;;11.30;54.59
76201;BME280;64981;52.930;9.266;2024-02-26T12:53:44;100466.84;;;11.19;54.65
76201;BME280;64981;52.930;9.266;2024-02-26T12:56:11;100478.03;;;11.29;55.01
76201;BME280;64981;52.930;9.266;2024-02-26T12:58:39;100475.72;;;11.57;53.96
76201;BME280;64981;52.930;9.266;2024-02-26T13:01:06;100467.78;;;11.65;53.47